createdAt,value
2016-04-20T11:45:52.610Z,55
2016-04-20T11:46:51.690Z,35
2016-04-20T11:47:51.536Z,55
2016-04-20T11:48:51.618Z,85
2016-04-20T11:49:51.339Z,105
2016-04-20T11:50:51.608Z,70
2016-04-20T11:51:51.454Z,35
2016-04-20T11:52:51.300Z,35
2016-04-20T11:53:51.350Z,40
2016-04-20T11:54:51.431Z,45
2016-04-20T11:55:51.636Z,80
2016-04-20T11:56:51.436Z,110
2016-04-20T11:57:51.469Z,100
2016-04-20T11:58:52.191Z,195
2016-04-20T11:59:51.586Z,415
2016-04-20T12:00:54.213Z,405
2016-04-20T12:01:51.606Z,205
2016-04-20T12:02:51.421Z,170
2016-04-20T12:03:51.892Z,70
2016-04-20T12:04:51.020Z,85
2016-04-20T12:05:51.117Z,90
2016-04-20T12:06:51.198Z,90
2016-04-20T12:07:51.841Z,65
2016-04-20T12:08:50.562Z,100
2016-04-20T12:09:54.377Z,305
2016-04-20T12:10:52.520Z,605
2016-04-20T12:11:51.148Z,740
2016-04-20T12:13:05.295Z,1020
2016-04-20T12:13:50.857Z,875
2016-04-20T12:14:51.516Z,510
2016-04-20T12:15:50.768Z,195
2016-04-20T12:16:51.520Z,70
2016-04-20T12:17:50.712Z,70
2016-04-20T12:18:50.746Z,120
2016-04-20T12:19:50.686Z,70
2016-04-20T12:20:51.470Z,60
2016-04-20T12:21:50.706Z,50
2016-04-20T12:22:50.600Z,50
2016-04-20T12:23:51.150Z,60
2016-04-20T12:24:50.683Z,85
2016-04-20T12:25:49.858Z,120
2016-04-20T12:26:50.938Z,145
2016-04-20T12:27:50.519Z,200
2016-04-20T12:28:50.585Z,205
2016-04-20T12:29:50.463Z,340
2016-04-20T12:30:50.793Z,305
2016-04-20T12:31:50.984Z,170
2016-04-20T12:32:50.860Z,105
2016-04-20T12:33:50.488Z,90
2016-04-20T12:34:50.663Z,105
2016-04-20T12:35:50.557Z,145
2016-04-20T12:36:50.497Z,110
2016-04-20T12:37:50.407Z,180
2016-04-20T12:38:50.580Z,135
2016-04-20T12:39:50.396Z,60
2016-04-20T12:40:50.571Z,40
2016-04-20T12:41:50.933Z,40
2016-04-20T12:42:50.435Z,40
2016-04-20T12:43:50.187Z,40
2016-04-20T12:44:53.659Z,40
2016-04-20T12:45:50.224Z,35
2016-04-20T12:46:51.977Z,40
2016-04-20T12:47:50.121Z,40
2016-04-20T12:48:50.357Z,40
2016-04-20T12:49:50.314Z,40
2016-04-20T12:50:50.191Z,40
2016-04-20T12:51:50.178Z,40
2016-04-20T12:52:50.509Z,40
2016-04-20T12:53:50.074Z,35
2016-04-20T12:55:03.861Z,40
2016-04-20T12:55:51.080Z,40
2016-04-20T12:56:50.145Z,65
2016-04-20T12:57:50.069Z,90
2016-04-20T12:58:50.025Z,260
2016-04-20T12:59:49.825Z,260
2016-04-20T13:00:50.077Z,110
2016-04-20T13:02:03.644Z,60
2016-04-20T13:02:49.910Z,85
2016-04-20T13:03:50.320Z,105
2016-04-20T13:04:49.885Z,55
2016-04-20T13:05:51.091Z,45
2016-04-20T13:06:49.890Z,55
2016-04-20T13:07:50.252Z,60
2016-04-20T13:08:49.646Z,80
2016-04-20T13:09:49.602Z,70
2016-04-20T13:10:49.620Z,45
2016-04-20T13:11:50.028Z,50
2016-04-20T13:12:50.406Z,70
2016-04-20T13:13:49.596Z,50
2016-04-20T13:15:03.462Z,55
2016-04-20T13:15:49.821Z,45
2016-04-20T13:17:03.498Z,140
2016-04-20T13:17:49.670Z,285
2016-04-20T13:18:49.532Z,170
2016-04-20T13:19:50.019Z,125
2016-04-20T13:20:49.584Z,110
2016-04-20T13:21:48.915Z,95
2016-04-20T13:22:49.948Z,140
2016-04-20T13:23:49.295Z,290
2016-04-20T13:24:49.375Z,280
2016-04-20T13:25:50.378Z,200
2016-04-20T13:26:49.584Z,155
2016-04-20T13:27:50.291Z,215
2016-04-20T13:28:49.700Z,170
2016-04-20T13:29:49.514Z,315
2016-04-20T13:31:03.082Z,410
2016-04-20T13:31:49.394Z,350
2016-04-20T13:32:49.117Z,210
2016-04-20T13:33:49.228Z,95
2016-04-20T13:34:48.981Z,85
2016-04-20T13:35:49.218Z,95
2016-04-20T13:36:48.940Z,125
2016-04-20T13:37:49.145Z,85
2016-04-20T13:38:49.149Z,130
2016-04-20T13:39:48.948Z,180
2016-04-20T13:40:49.013Z,140
2016-04-20T13:41:49.157Z,320
2016-04-20T13:42:48.831Z,495
2016-04-20T13:43:48.848Z,1130
2016-04-20T13:44:48.868Z,795
2016-04-20T13:45:49.260Z,585
2016-04-20T13:46:48.748Z,375
2016-04-20T13:47:49.015Z,985
2016-04-20T13:48:48.801Z,655
2016-04-20T13:49:48.865Z,940
2016-04-20T13:50:48.868Z,970
2016-04-20T13:51:48.730Z,875
2016-04-20T13:52:49.062Z,745
2016-04-20T13:53:48.954Z,835
2016-04-20T13:54:48.675Z,810
2016-04-20T13:55:48.912Z,830
2016-04-20T13:56:49.275Z,540
2016-04-20T13:57:49.027Z,415
2016-04-20T13:58:48.968Z,595
2016-04-20T13:59:48.533Z,555
2016-04-20T14:00:48.926Z,555
2016-04-20T14:01:48.742Z,655
2016-04-20T14:02:48.510Z,800
2016-04-20T14:03:48.747Z,865
2016-04-20T14:04:48.640Z,855
2016-04-20T14:05:48.643Z,840
2016-04-20T14:06:48.473Z,840
2016-04-20T14:07:48.461Z,845
2016-04-20T14:08:48.354Z,845
2016-04-20T14:09:48.450Z,835
2016-04-20T14:10:49.297Z,845
2016-04-20T14:11:48.690Z,830
2016-04-20T14:12:48.349Z,780
2016-04-20T14:13:48.383Z,685
2016-04-20T14:14:48.339Z,565
2016-04-20T14:15:48.326Z,495
2016-04-20T14:16:48.437Z,435
2016-04-20T14:17:48.284Z,370
2016-04-20T14:18:48.240Z,310
2016-04-20T14:19:48.696Z,305
2016-04-20T14:21:02.545Z,265
2016-04-20T14:21:50.029Z,365
2016-04-20T14:22:47.377Z,390
2016-04-20T14:23:48.442Z,360
2016-04-20T14:24:48.179Z,325
2016-04-20T14:25:48.119Z,315
2016-04-20T14:26:48.357Z,335
2016-04-20T14:27:48.249Z,355
2016-04-20T14:28:48.456Z,340
2016-04-20T14:29:49.818Z,300
2016-04-20T14:30:49.352Z,325
2016-04-20T14:31:50.354Z,315
2016-04-20T14:32:48.387Z,300
2016-04-20T14:33:47.312Z,295
2016-04-20T14:34:48.222Z,310
2016-04-20T14:35:48.178Z,300
2016-04-20T14:36:49.617Z,285
2016-04-20T14:37:48.261Z,295
2016-04-20T14:38:48.123Z,305
2016-04-20T14:39:48.157Z,300
2016-04-20T14:40:48.175Z,300
2016-04-20T14:41:47.975Z,305
2016-04-20T14:42:47.900Z,305
2016-04-20T14:43:48.496Z,295
2016-04-20T14:44:48.342Z,290
2016-04-20T14:45:48.127Z,290
2016-04-20T14:46:48.348Z,285
2016-04-20T14:47:47.913Z,285
2016-04-20T14:48:47.978Z,275
2016-04-20T14:49:47.966Z,270
2016-04-20T14:50:48.296Z,270
2016-04-20T14:51:48.049Z,265
2016-04-20T14:52:47.832Z,265
2016-04-20T14:53:48.148Z,260
2016-04-20T14:54:48.338Z,260
2016-04-20T14:55:47.872Z,255
2016-04-20T14:56:48.234Z,250
2016-04-20T14:57:47.940Z,255
2016-04-20T14:58:47.990Z,255
2016-04-20T14:59:48.368Z,255
2016-04-20T15:00:48.307Z,240
2016-04-20T15:01:48.154Z,205
2016-04-20T15:02:47.890Z,210
2016-04-20T15:03:47.846Z,220
2016-04-20T15:04:47.833Z,210
2016-04-20T15:05:47.273Z,180
2016-04-20T15:06:48.198Z,170
2016-04-20T15:07:48.264Z,150
2016-04-20T15:08:47.939Z,140
2016-04-20T15:09:47.863Z,115
2016-04-20T15:10:47.975Z,105
2016-04-20T15:11:48.118Z,135
2016-04-20T15:12:47.917Z,110
2016-04-20T15:13:47.795Z,85
